Havre City County Airport
KHVR : now visible

Airfield :











YOU CAN JOIN US ON...

 
LOGIN :

Register | Disclaimer

   EN    FR    IT 

 









Legend :    VFR   Marginal VFR   IFR   Intensive IFR   Very Intensive IFR
Visi :
Ceiling :
>= 8 km
>= 3000ft
5 to 8 km
1000 to 3000 ft
1500m to 5 km
500 to 1000 ft
800 to 1500m
200 to 500 ft
< 800m
< 200 ft
Symbols :   Thunderstorms  Fog  Heavy snow  Heavy precipitations  Wind > 20 kt






- Airport Elevation : 2591 ft


KHVR - Havre City County

CURRENT METAR :
  • 172053Z AUTO 29016KT 10SM BKN100 M21/M26 A3014 RMK AO2 SLP278 60000 T12111261 51018

EXPIRED METARs :
  • 171953Z AUTO 30015KT 10SM SCT029 BKN110 M21/M27 A3012 RMK AO2 SLP272 T12111267
  • 171942Z AUTO 30015KT 10SM FEW022 BKN029 OVC110 M21/M27 A3013 RMK AO2 T12111267
  • 171853Z AUTO 31016KT 10SM FEW027 M22/M27 A3010 RMK AO2 SNE1757 SLP265 P0000 T12171267
  • 171830Z AUTO 29016KT 10SM SCT021 M22/M26 A3010 RMK AO2 SNE1757 P0000 T12171261

TAF KHVR
Valid from the 17 at 18:00 until the 18 at 18:00 UTC


171740Z 1718/1818 30011KT P6SM VCSH SCT020 BKN040
TEMPO 1718/1720 3SM -SHSN BKN020
FM172000 26010KT P6SM SCT040 BKN060
FM180500 25006KT P6SM SCT120



MET'MAP, your aeronautical weather chart ! - Copyright ORBIFLY December 2007 - Disclaimer

ORBIFLY MET'MAP TEAM :

Programming & Development : Alexandra Zaïnal
Concept & original design : Baudouin d'Aumeries
Assistance for programming : Marc-Olivier Méhu
Technical & hardware support : Manuel Goepfert

Contact : metmap@orbifly.com




SOURCES & CREDITS :

   NOAA       Earth
Advisory